Portada
METAR-TAF:

METAR-TAF

Aeropuertos :

Aeropuerto de Almería

Almería, España

latitud: 36-51N, longitud: 002-23W, altitud: 15 m

Observación

El informe se hizo hace 20 minutos, a las 03:00 UTC
Viento 12 kt del noroeste
Temperatura 13°C
Humedad 62%
Presión 1019 hPa
Visibilidad 10 km o más
Cielo nuboso a una altura de 9000 ft

METAR: LEAM 240300Z AUTO 32012KT 9999 BKN090 13/06 Q1019

Hora: 04:20 (03:20 UTC)

Pronóstico

El informe se hizo hace 1 hora y 20 minutos, a las 02:00 UTC
Pronóstico válido del 24 a las 03 UTC al 25 a las 03 UTC
Viento 8 kt del norte
Visibilidad 10 km o más
Escasas nubes a una altura de 4000 ft
Probabilidad 40% :
Temporalmente
del 24 a las 11 UTC al 24 a las 20 UTC
Viento 10 kt del sur

TAF: LEAM 240200Z 2403/2503 35008KT 9999 FEW040 TX17/2415Z TN09/2406Z PROB40 TEMPO 2411/2420 19010KT

Observaciones y pronósticos meteorológicos de más de 4000 aeropuertos (mensajes METAR y TAF).

Los puntos amarillos y rojos representan las estaciones disponibles.

Ponga el ratón en el punto deseado para ver el nombre de la estación.

Haga clic para ver las observaciones y los pronósticos meteorológicos.

Para cambiar el mapa : haga clic en los botones verdes con una cruz de color negro para hacer un zoom, en el botón verde con un guión para alejar o en las flechas verdes para mapas adyacentes.


METAR-TAF: